Time;durP1;ratioP1;P1;durP2;ratioP2;P2;SDS_P1;SDS_P2;PMS_P1;PMS_P2;Temp;Humidity;BMP_temperature;BMP_pressure;BME280_temperature;BME280_humidity;BME280_pressure;Samples;Min_cycle;Max_cycle;Signal;HPM_P1;HPM_P2
2022/09/13 00:01:38;;;;;;;5.20;2.25;;;17.30;99.90;;;;;;10625236;27;20047;-76
2022/09/13 00:06:41;;;;;;;6.20;2.13;;;17.30;99.90;;;;;;10626870;27;20047;-76
2022/09/13 00:11:43;;;;;;;3.17;1.80;;;17.20;99.90;;;;;;10649291;27;20050;-76
2022/09/13 00:16:45;;;;;;;5.05;2.42;;;17.20;99.90;;;;;;10626859;27;20046;-76
2022/09/13 00:21:48;;;;;;;4.70;2.20;;;17.00;99.90;;;;;;10632390;27;20051;-76
2022/09/13 00:26:51;;;;;;;5.43;2.15;;;16.90;99.90;;;;;;10626474;27;20051;-76
2022/09/13 00:31:53;;;;;;;5.32;1.90;;;16.60;99.90;;;;;;10640397;27;20484;-76
2022/09/13 00:36:56;;;;;;;4.95;2.45;;;16.20;99.90;;;;;;10626238;27;20051;-76
2022/09/13 00:41:58;;;;;;;4.95;2.45;;;16.40;99.90;;;;;;10641524;27;20039;-75
2022/09/13 00:47:01;;;;;;;5.13;2.10;;;16.50;99.90;;;;;;10656885;27;20058;-76
2022/09/13 00:52:09;;;;;;;5.03;2.30;;;16.60;99.90;;;;;;10628811;27;20087;-76
2022/09/13 00:57:13;;;;;;;4.30;2.17;;;16.60;99.90;;;;;;10668249;27;20377;-76
2022/09/13 01:02:16;;;;;;;7.93;2.10;;;16.70;99.90;;;;;;10663514;27;20057;-75
2022/09/13 01:07:19;;;;;;;8.20;4.07;;;16.70;99.90;;;;;;10660707;27;20054;-76
2022/09/13 01:12:32;;;;;;;5.82;2.72;;;16.50;99.90;;;;;;10625517;27;20096;-75
2022/09/13 01:17:38;;;;;;;7.65;3.70;;;16.50;99.90;;;;;;10634176;27;20047;-76
2022/09/13 01:23:20;;;;;;;10.80;5.03;;;16.50;99.90;;;;;;10653079;27;20039;-76
2022/09/13 01:28:55;;;;;;;6.43;2.83;;;16.50;99.90;;;;;;10663761;27;20046;-76
2022/09/13 01:34:17;;;;;;;3.95;2.03;;;16.60;99.90;;;;;;10623283;27;20431;-76
2022/09/13 01:39:37;;;;;;;6.85;2.55;;;16.60;99.90;;;;;;10623384;27;20047;-76
2022/09/13 01:44:59;;;;;;;7.68;2.38;;;16.50;99.90;;;;;;10650291;27;20061;-76
2022/09/13 01:50:17;;;;;;;9.02;2.63;;;16.30;99.90;;;;;;10640615;27;20050;-77
2022/09/13 01:55:30;;;;;;;6.65;2.50;;;16.20;99.90;;;;;;10651039;27;20496;-76
2022/09/13 02:00:38;;;;;;;4.57;2.45;;;16.10;99.90;;;;;;10627551;27;20051;-75
2022/09/13 02:05:49;;;;;;;6.97;2.33;;;16.10;99.90;;;;;;10643284;27;20046;-76
2022/09/13 02:10:59;;;;;;;5.70;2.33;;;16.10;99.90;;;;;;10665272;27;20047;-76
2022/09/13 02:16:08;;;;;;;5.70;2.60;;;16.20;99.90;;;;;;10628294;27;20468;-76
2022/09/13 02:21:18;;;;;;;4.95;2.08;;;16.20;99.90;;;;;;10665819;27;20095;-75
2022/09/13 02:26:21;;;;;;;7.40;2.42;;;16.10;99.90;;;;;;10651842;27;20051;-75
2022/09/13 02:31:29;;;;;;;3.80;2.10;;;16.10;99.90;;;;;;10631117;27;20050;-76
2022/09/13 02:36:39;;;;;;;5.80;2.00;;;16.10;99.90;;;;;;10639724;27;20059;-76
2022/09/13 02:41:51;;;;;;;5.85;2.00;;;16.00;99.90;;;;;;10628087;27;20810;-76
2022/09/13 02:47:11;;;;;;;5.32;1.92;;;15.80;99.90;;;;;;10640692;27;20054;-76
2022/09/13 02:52:26;;;;;;;7.57;2.20;;;15.70;99.90;;;;;;10630130;27;20374;-75
2022/09/13 02:57:32;;;;;;;6.07;2.40;;;15.70;99.90;;;;;;10641501;27;20145;-75
2022/09/13 03:02:37;;;;;;;4.55;2.20;;;15.70;99.90;;;;;;10649881;27;20055;-75
2022/09/13 03:07:40;;;;;;;3.88;2.00;;;15.60;99.90;;;;;;10639210;27;20055;-75
2022/09/13 03:13:26;;;;;;;4.13;2.00;;;15.60;99.90;;;;;;10629749;27;20051;-75
2022/09/13 03:18:46;;;;;;;4.07;2.00;;;15.50;99.90;;;;;;10655099;27;20053;-74
2022/09/13 03:24:05;;;;;;;4.75;1.77;;;15.60;99.90;;;;;;10633593;27;20038;-74
2022/09/13 03:29:26;;;;;;;6.70;2.13;;;15.50;99.90;;;;;;10667915;27;20043;-76
2022/09/13 03:34:35;;;;;;;5.75;2.40;;;15.70;99.90;;;;;;10666751;27;20103;-74
2022/09/13 03:39:42;;;;;;;5.55;2.13;;;15.70;99.90;;;;;;10629340;27;20050;-76
2022/09/13 03:44:47;;;;;;;6.63;2.37;;;15.60;99.90;;;;;;10628345;27;20047;-76
2022/09/13 03:49:51;;;;;;;4.00;2.08;;;15.70;99.90;;;;;;10652581;27;20051;-76
2022/09/13 03:54:54;;;;;;;6.10;2.08;;;15.60;99.90;;;;;;10627690;27;20126;-77
2022/09/13 03:59:58;;;;;;;3.60;1.85;;;15.30;99.90;;;;;;10654980;27;20050;-75
2022/09/13 04:05:00;;;;;;;5.40;1.98;;;15.40;99.90;;;;;;10633602;27;20047;-75
2022/09/13 04:10:04;;;;;;;6.25;2.38;;;15.40;99.90;;;;;;10663693;27;20043;-76
2022/09/13 04:15:08;;;;;;;4.88;2.15;;;15.30;99.90;;;;;;10661847;27;20502;-75
2022/09/13 04:20:11;;;;;;;4.95;2.20;;;15.30;99.90;;;;;;10650757;27;20047;-75
2022/09/13 04:25:14;;;;;;;4.45;2.47;;;15.30;99.90;;;;;;10654669;27;20187;-75
2022/09/13 04:30:17;;;;;;;5.28;2.45;;;15.20;99.90;;;;;;10631541;27;20051;-75
2022/09/13 04:35:19;;;;;;;7.97;2.10;;;15.20;99.90;;;;;;10626709;27;20054;-75
2022/09/13 04:40:22;;;;;;;4.20;2.13;;;15.20;99.90;;;;;;10649567;27;20049;-75
2022/09/13 04:45:24;;;;;;;5.85;2.38;;;15.10;99.90;;;;;;10668681;27;20502;-78
2022/09/13 04:50:27;;;;;;;4.03;2.33;;;15.10;99.90;;;;;;10661982;27;20047;-75
2022/09/13 04:55:30;;;;;;;4.93;2.50;;;15.10;99.90;;;;;;10629069;27;20043;-78
2022/09/13 05:00:33;;;;;;;5.28;2.00;;;15.00;99.90;;;;;;10649537;27;20054;-77
2022/09/13 05:05:35;;;;;;;8.48;2.38;;;15.00;99.90;;;;;;10607982;27;20404;-75
2022/09/13 05:10:38;;;;;;;5.18;2.28;;;15.10;99.90;;;;;;10633205;27;20438;-77
2022/09/13 05:15:40;;;;;;;4.88;2.17;;;15.20;99.90;;;;;;10628707;27;20051;-79
2022/09/13 05:20:42;;;;;;;3.90;2.17;;;15.20;99.90;;;;;;10509770;27;20110;-79
2022/09/13 05:25:46;;;;;;;5.68;2.03;;;15.20;99.90;;;;;;10497488;28;20057;-79
2022/09/13 05:30:56;;;;;;;3.92;2.13;;;15.10;99.90;;;;;;10521239;28;20039;-79
2022/09/13 05:35:58;;;;;;;5.28;2.20;;;15.10;99.90;;;;;;10530567;28;20076;-79
2022/09/13 05:41:04;;;;;;;4.45;2.10;;;15.10;99.90;;;;;;10531715;28;20498;-76
2022/09/13 05:46:10;;;;;;;3.75;2.20;;;15.00;99.90;;;;;;10538945;28;20056;-76
2022/09/13 05:51:14;;;;;;;5.70;2.65;;;15.10;99.90;;;;;;10499896;28;20048;-78
2022/09/13 05:56:20;;;;;;;7.85;2.60;;;15.10;99.90;;;;;;10530654;28;20048;-77
2022/09/13 06:01:25;;;;;;;6.50;2.22;;;15.20;99.90;;;;;;10502530;28;20487;-77
2022/09/13 06:06:27;;;;;;;5.45;2.40;;;15.20;99.90;;;;;;10509206;28;20040;-77
2022/09/13 06:11:30;;;;;;;5.30;2.60;;;15.30;99.90;;;;;;10496621;28;20047;-76
2022/09/13 06:16:32;;;;;;;6.15;2.60;;;15.30;99.90;;;;;;10496798;28;20092;-77
2022/09/13 06:21:34;;;;;;;4.47;2.33;;;15.40;99.90;;;;;;10504884;28;20044;-76
2022/09/13 06:26:38;;;;;;;4.60;2.45;;;15.40;99.90;;;;;;10504747;28;20053;-77
2022/09/13 06:31:43;;;;;;;6.53;2.35;;;15.40;99.90;;;;;;10504686;28;20052;-77
2022/09/13 06:36:45;;;;;;;5.00;2.40;;;15.40;99.90;;;;;;10504681;28;20053;-76
2022/09/13 06:41:49;;;;;;;6.60;2.60;;;15.50;99.90;;;;;;10504003;28;20040;-76
2022/09/13 06:46:51;;;;;;;7.40;2.72;;;15.60;99.90;;;;;;10503918;28;20410;-76
2022/09/13 06:51:53;;;;;;;7.65;2.55;;;15.70;99.90;;;;;;10503804;28;20056;-76
2022/09/13 06:56:56;;;;;;;7.07;2.55;;;15.70;99.90;;;;;;10503805;28;20058;-76
2022/09/13 07:01:58;;;;;;;5.00;2.67;;;15.80;99.90;;;;;;10503177;28;20052;-76
2022/09/13 07:07:00;;;;;;;7.85;2.95;;;15.80;99.90;;;;;;10503426;28;20064;-77
2022/09/13 07:12:06;;;;;;;5.93;2.80;;;15.90;99.90;;;;;;10503035;28;20045;-76
2022/09/13 07:17:08;;;;;;;7.18;2.90;;;16.00;99.90;;;;;;10502875;28;20498;-77
2022/09/13 07:22:10;;;;;;;6.93;2.70;;;16.20;99.90;;;;;;10502514;28;20490;-77
2022/09/13 07:27:15;;;;;;;4.05;2.50;;;16.20;99.90;;;;;;10502380;28;20091;-77
2022/09/13 07:32:18;;;;;;;5.38;2.75;;;16.40;99.90;;;;;;10501782;28;20052;-76
2022/09/13 07:37:20;;;;;;;4.38;2.42;;;16.50;99.90;;;;;;10501340;28;20080;-77
2022/09/13 07:42:23;;;;;;;7.03;2.58;;;16.70;99.90;;;;;;10502100;28;20074;-77
2022/09/13 07:47:25;;;;;;;7.18;2.50;;;16.90;99.90;;;;;;10501864;28;20048;-77
2022/09/13 07:52:29;;;;;;;5.07;2.50;;;17.00;99.90;;;;;;10501500;28;20051;-77
2022/09/13 07:57:32;;;;;;;5.15;2.30;;;17.10;99.90;;;;;;10505727;28;20053;-77
2022/09/13 08:02:36;;;;;;;4.55;2.33;;;17.20;99.90;;;;;;10502069;28;20063;-76
2022/09/13 08:07:38;;;;;;;6.68;2.33;;;17.40;99.90;;;;;;10501216;28;20098;-76
2022/09/13 08:12:41;;;;;;;4.72;2.10;;;17.50;99.90;;;;;;10500782;28;20048;-77
2022/09/13 08:17:43;;;;;;;6.97;2.15;;;17.60;99.90;;;;;;10500457;28;20441;-77
2022/09/13 08:22:45;;;;;;;6.18;2.30;;;17.70;99.90;;;;;;10499943;28;20548;-76
2022/09/13 08:27:48;;;;;;;4.10;2.10;;;17.90;99.90;;;;;;10500037;28;20059;-76
2022/09/13 08:32:51;;;;;;;7.20;2.17;;;18.00;99.90;;;;;;10500053;28;20045;-76
2022/09/13 08:37:53;;;;;;;4.85;2.15;;;18.00;99.90;;;;;;10499421;28;20498;-77
2022/09/13 08:43:07;;;;;;;5.63;2.05;;;18.20;99.90;;;;;;10498550;28;20123;-76
2022/09/13 08:48:15;;;;;;;4.57;1.90;;;18.40;99.90;;;;;;10499161;28;20399;-76
2022/09/13 08:53:23;;;;;;;4.45;2.10;;;18.50;99.90;;;;;;10499145;28;20049;-77
2022/09/13 08:58:59;;;;;;;5.63;1.90;;;18.60;99.90;;;;;;10498994;28;20045;-77
2022/09/13 09:04:07;;;;;;;4.60;1.88;;;18.70;99.90;;;;;;10498441;28;20406;-77
2022/09/13 09:09:15;;;;;;;4.05;1.85;;;18.80;99.90;;;;;;10498168;28;20498;-77
2022/09/13 09:14:27;;;;;;;4.50;2.00;;;18.90;99.90;;;;;;10498491;28;20052;-76
2022/09/13 09:19:35;;;;;;;5.47;2.03;;;19.10;99.90;;;;;;10498021;28;20072;-76
2022/09/13 09:24:39;;;;;;;5.18;1.77;;;19.20;99.90;;;;;;10497703;28;20049;-77
2022/09/13 09:29:43;;;;;;;3.22;1.90;;;19.30;99.90;;;;;;10497739;28;20052;-77
2022/09/13 09:34:59;;;;;;;4.68;1.85;;;19.50;99.90;;;;;;10496370;28;20490;-77
2022/09/13 09:40:07;;;;;;;4.68;1.80;;;19.70;99.90;;;;;;10497544;28;20045;-76
2022/09/13 09:45:26;;;;;;;5.60;2.80;;;19.80;99.90;;;;;;10497153;28;20051;-77
2022/09/13 09:50:33;;;;;;;5.55;1.92;;;19.90;99.90;;;;;;10497113;28;20097;-76
2022/09/13 09:55:43;;;;;;;3.72;1.40;;;20.10;99.90;;;;;;10496639;28;20414;-76
2022/09/13 10:00:55;;;;;;;5.15;1.67;;;20.50;99.90;;;;;;10496903;28;20055;-77
2022/09/13 10:06:07;;;;;;;3.40;1.52;;;20.80;99.90;;;;;;10499651;28;20063;-76
2022/09/13 10:11:11;;;;;;;4.30;1.80;;;21.00;98.90;;;;;;10497295;28;20045;-76
2022/09/13 10:16:26;;;;;;;5.45;1.73;;;21.10;98.70;;;;;;10496978;28;20048;-77
2022/09/13 10:21:28;;;;;;;3.85;1.60;;;21.30;97.80;;;;;;10497399;28;20045;-77
2022/09/13 10:26:33;;;;;;;3.28;1.38;;;21.40;97.60;;;;;;10496373;28;20059;-76
2022/09/13 10:31:40;;;;;;;3.30;1.60;;;21.50;97.10;;;;;;10496436;28;20089;-76
2022/09/13 10:36:53;;;;;;;4.10;1.42;;;21.70;97.10;;;;;;10512733;28;20047;-77
2022/09/13 10:41:59;;;;;;;2.50;1.20;;;21.90;95.70;;;;;;10519110;28;20112;-79
2022/09/13 10:47:07;;;;;;;4.25;1.65;;;21.90;96.10;;;;;;10497269;28;20045;-77
2022/09/13 10:52:30;;;;;;;6.35;1.52;;;21.90;95.70;;;;;;10497763;28;20414;-78
2022/09/13 10:57:36;;;;;;;2.83;1.27;;;21.90;95.30;;;;;;10494699;28;20042;-78
2022/09/13 11:03:24;;;;;;;3.45;1.70;;;22.10;95.30;;;;;;10486086;28;20048;-77
2022/09/13 11:08:38;;;;;;;4.45;1.45;;;22.30;93.90;;;;;;10475537;28;20052;-79
2022/09/13 11:13:54;;;;;;;3.15;1.40;;;22.40;93.70;;;;;;10476154;28;20052;-79
2022/09/13 11:19:20;;;;;;;2.40;1.23;;;22.70;92.50;;;;;;10494816;28;20063;-77
2022/09/13 11:24:52;;;;;;;3.83;1.70;;;22.80;91.70;;;;;;10521118;28;20051;-78
2022/09/13 11:30:12;;;;;;;6.43;1.60;;;23.10;92.40;;;;;;10519883;28;20056;-78
2022/09/13 11:35:38;;;;;;;3.50;1.50;;;23.10;92.20;;;;;;10520577;28;20048;-79
2022/09/13 11:40:51;;;;;;;3.15;1.40;;;23.40;92.10;;;;;;10498078;28;20522;-78
2022/09/13 11:46:07;;;;;;;3.53;1.50;;;23.40;92.20;;;;;;10481631;28;20052;-78
2022/09/13 11:51:24;;;;;;;3.25;1.40;;;23.50;91.30;;;;;;10482284;28;20750;-79
2022/09/13 11:56:33;;;;;;;5.05;1.33;;;23.80;90.90;;;;;;10479560;28;20596;-79
2022/09/13 12:01:42;;;;;;;3.70;1.30;;;24.20;87.50;;;;;;10503882;28;20388;-78
2022/09/13 12:06:54;;;;;;;3.53;1.30;;;24.30;88.30;;;;;;10498041;28;20052;-79
2022/09/13 12:12:04;;;;;;;4.03;1.02;;;24.50;85.80;;;;;;10502563;28;20060;-78
2022/09/13 12:17:19;;;;;;;3.63;1.10;;;24.60;85.50;;;;;;10500456;28;20098;-79
2022/09/13 12:22:24;;;;;;;2.63;1.10;;;24.90;87.10;;;;;;10502946;28;20064;-78
2022/09/13 12:27:37;;;;;;;3.80;1.10;;;25.20;78.80;;;;;;10513678;28;20129;-76
2022/09/13 12:32:39;;;;;;;3.60;1.00;;;25.50;77.60;;;;;;10511907;28;20058;-77
2022/09/13 12:38:10;;;;;;;2.40;0.90;;;25.60;73.30;;;;;;10513336;28;20055;-77
2022/09/13 12:43:51;;;;;;;2.30;0.93;;;25.60;68.90;;;;;;10480109;28;20052;-77
2022/09/13 12:49:33;;;;;;;2.90;1.20;;;25.70;70.20;;;;;;10490613;28;20052;-78
2022/09/13 12:55:36;;;;;;;5.38;2.40;;;25.80;67.70;;;;;;10493659;28;20052;-77
2022/09/13 13:00:43;;;;;;;3.03;1.13;;;26.00;65.20;;;;;;10484480;28;20087;-77
2022/09/13 13:05:50;;;;;;;2.77;1.00;;;26.30;65.30;;;;;;10502636;28;20138;-77
2022/09/13 13:11:04;;;;;;;2.57;0.93;;;26.30;61.70;;;;;;10507523;28;20094;-76
2022/09/13 13:16:26;;;;;;;4.25;1.00;;;26.30;64.10;;;;;;10518352;28;20366;-77
2022/09/13 13:21:35;;;;;;;2.63;1.10;;;26.40;65.30;;;;;;10490149;28;20143;-79
2022/09/13 13:26:52;;;;;;;3.85;1.20;;;26.60;66.10;;;;;;10511866;28;20142;-77
2022/09/13 13:32:12;;;;;;;3.13;1.27;;;26.80;67.00;;;;;;10494693;28;20140;-79
2022/09/13 13:37:35;;;;;;;3.85;1.05;;;27.30;65.50;;;;;;10492826;28;20777;-78
2022/09/13 13:42:39;;;;;;;4.22;1.05;;;27.50;64.00;;;;;;10491181;28;20056;-76
2022/09/13 13:48:10;;;;;;;3.95;1.10;;;27.70;62.80;;;;;;10504082;28;20403;-79
2022/09/13 13:53:33;;;;;;;4.18;1.20;;;27.90;64.80;;;;;;10495864;28;20060;-79
2022/09/13 13:58:47;;;;;;;6.43;3.55;;;28.00;62.10;;;;;;10449866;28;20211;-81
2022/09/13 14:04:47;;;;;;;14.52;9.63;;;28.10;61.60;;;;;;10465925;28;20052;-79
2022/09/13 14:09:58;;;;;;;6.10;1.70;;;28.20;62.40;;;;;;10463659;28;20056;-79
2022/09/13 14:15:31;;;;;;;3.92;1.10;;;28.40;60.60;;;;;;10512023;28;20060;-79
2022/09/13 14:20:33;;;;;;;3.55;1.08;;;28.60;61.60;;;;;;10525389;28;20052;-79
2022/09/13 14:25:35;;;;;;;3.00;0.80;;;29.60;60.90;;;;;;10508238;28;20055;-79
2022/09/13 14:30:39;;;;;;;2.95;1.00;;;30.50;58.60;;;;;;10493010;28;20052;-80
2022/09/13 14:35:41;;;;;;;3.53;0.90;;;30.90;59.30;;;;;;10490431;28;20052;-78
2022/09/13 14:40:48;;;;;;;8.32;1.33;;;30.80;58.50;;;;;;10494070;28;20064;-77
2022/09/13 14:46:00;;;;;;;3.33;0.90;;;30.60;62.30;;;;;;10529604;28;20048;-78
2022/09/13 14:51:08;;;;;;;3.47;1.02;;;31.00;58.00;;;;;;10533244;28;20056;-77
2022/09/13 14:56:17;;;;;;;5.38;1.98;;;31.10;58.70;;;;;;10526813;28;20138;-78
2022/09/13 15:01:27;;;;;;;4.20;1.60;;;30.60;59.90;;;;;;10536830;28;20059;-78
2022/09/13 15:06:32;;;;;;;3.13;1.10;;;29.80;60.50;;;;;;10513844;28;20405;-78
2022/09/13 15:11:37;;;;;;;2.17;0.90;;;29.30;60.50;;;;;;10501606;28;20094;-78
2022/09/13 15:16:50;;;;;;;3.35;1.33;;;28.90;62.40;;;;;;10463536;28;20644;-78
2022/09/13 15:21:52;;;;;;;5.68;1.55;;;28.70;63.00;;;;;;10530700;28;20082;-76
2022/09/13 15:27:06;;;;;;;6.85;2.50;;;28.50;64.80;;;;;;10537005;28;20063;-77
2022/09/13 15:32:23;;;;;;;4.97;1.70;;;28.40;68.00;;;;;;10534220;28;20044;-76
2022/09/13 15:37:36;;;;;;;6.32;2.00;;;27.90;68.70;;;;;;10529304;28;20059;-77
2022/09/13 15:42:38;;;;;;;5.78;1.90;;;27.90;69.40;;;;;;10505954;28;20105;-77
2022/09/13 15:47:44;;;;;;;3.67;1.60;;;27.50;70.80;;;;;;10537971;28;20069;-77
2022/09/13 15:52:46;;;;;;;4.10;1.30;;;27.50;72.40;;;;;;10525071;28;20060;-77
2022/09/13 15:57:49;;;;;;;3.75;1.92;;;27.30;73.40;;;;;;10495626;28;20048;-77
2022/09/13 16:02:52;;;;;;;3.60;1.80;;;27.10;74.10;;;;;;10506431;28;20048;-78
2022/09/13 16:07:57;;;;;;;4.60;1.60;;;27.00;73.70;;;;;;10519395;28;20048;-77
2022/09/13 16:12:59;;;;;;;4.07;1.80;;;26.90;74.90;;;;;;10496531;28;20130;-76
2022/09/13 16:18:03;;;;;;;3.42;1.30;;;26.80;76.20;;;;;;10494848;28;20051;-77
2022/09/13 16:23:05;;;;;;;2.75;1.40;;;26.70;77.00;;;;;;10502225;28;20044;-78
2022/09/13 16:28:07;;;;;;;4.40;1.40;;;26.50;77.70;;;;;;10503394;28;20057;-78
2022/09/13 16:33:10;;;;;;;4.60;2.20;;;26.40;80.30;;;;;;10507093;28;20068;-78
2022/09/13 16:38:13;;;;;;;5.80;2.17;;;26.30;81.70;;;;;;10506631;28;20059;-77
2022/09/13 16:43:15;;;;;;;4.50;1.50;;;26.30;81.70;;;;;;10509488;28;20040;-82
2022/09/13 16:48:18;;;;;;;4.00;2.03;;;26.20;82.50;;;;;;10495073;28;20497;-80
2022/09/13 16:53:20;;;;;;;5.28;1.60;;;26.10;84.90;;;;;;10491688;28;20055;-82
2022/09/13 16:58:22;;;;;;;4.90;1.60;;;25.90;88.20;;;;;;10495154;28;20045;-81
2022/09/13 17:03:26;;;;;;;5.32;1.60;;;25.80;90.90;;;;;;10497835;28;20469;-83
2022/09/13 17:08:28;;;;;;;4.10;1.60;;;25.60;92.40;;;;;;10509330;28;20048;-79
2022/09/13 17:13:31;;;;;;;7.57;1.85;;;25.30;92.60;;;;;;10528284;28;20356;-81
2022/09/13 17:18:34;;;;;;;4.15;1.40;;;25.30;93.00;;;;;;10532225;28;20646;-83
2022/09/13 17:23:36;;;;;;;4.25;1.90;;;25.20;92.90;;;;;;10528026;28;20468;-81
2022/09/13 17:28:38;;;;;;;4.45;1.55;;;25.20;92.40;;;;;;10497278;28;20086;-81
2022/09/13 17:33:42;;;;;;;4.97;1.70;;;25.00;92.40;;;;;;10514046;28;20045;-79
2022/09/13 17:38:44;;;;;;;5.03;2.15;;;24.90;93.40;;;;;;10494752;28;20044;-80
2022/09/13 17:43:47;;;;;;;5.65;2.70;;;24.70;94.30;;;;;;10512316;28;20498;-80
2022/09/13 17:48:53;;;;;;;6.75;1.90;;;24.70;94.90;;;;;;10487797;28;20052;-80
2022/09/13 17:53:57;;;;;;;3.78;1.70;;;24.60;94.40;;;;;;10520267;28;20493;-80
2022/09/13 17:59:06;;;;;;;6.32;1.67;;;24.50;94.30;;;;;;10534191;28;20077;-79
2022/09/13 18:04:11;;;;;;;5.75;2.25;;;24.30;93.70;;;;;;10519972;28;20060;-80
2022/09/13 18:09:15;;;;;;;6.00;2.10;;;24.10;94.10;;;;;;10492696;28;20109;-80
2022/09/13 18:14:18;;;;;;;5.53;2.00;;;24.10;95.00;;;;;;10505454;28;20052;-81
2022/09/13 18:19:23;;;;;;;4.57;1.80;;;24.00;95.40;;;;;;10523312;28;20445;-81
2022/09/13 18:24:25;;;;;;;5.30;2.03;;;23.90;95.60;;;;;;10495449;28;20056;-79
2022/09/13 18:29:30;;;;;;;14.65;9.20;;;23.70;96.20;;;;;;10492313;28;20052;-85
2022/09/13 18:34:33;;;;;;;4.95;2.42;;;23.60;97.00;;;;;;10505109;28;20081;-79
2022/09/13 18:39:36;;;;;;;5.68;2.63;;;23.40;97.70;;;;;;10500449;28;20040;-79
2022/09/13 18:44:38;;;;;;;6.85;2.90;;;23.20;98.40;;;;;;10513522;28;20052;-78
2022/09/13 18:49:41;;;;;;;5.35;2.00;;;23.10;99.10;;;;;;10505041;28;20428;-84
2022/09/13 18:54:43;;;;;;;6.10;1.80;;;23.00;99.50;;;;;;10492490;28;20044;-85
2022/09/13 18:59:45;;;;;;;5.88;2.03;;;22.90;99.50;;;;;;10492541;28;20067;-84
2022/09/13 19:04:49;;;;;;;6.28;2.17;;;22.80;99.90;;;;;;10490438;28;20114;-80
2022/09/13 19:09:51;;;;;;;5.88;2.10;;;22.80;99.90;;;;;;10492148;28;20075;-80
2022/09/13 19:14:53;;;;;;;5.82;1.83;;;22.80;99.90;;;;;;10502569;28;20044;-78
2022/09/13 19:19:57;;;;;;;6.43;2.40;;;22.80;99.90;;;;;;10513496;28;20057;-83
2022/09/13 19:25:00;;;;;;;5.43;2.40;;;22.70;99.90;;;;;;10523422;28;20052;-79
2022/09/13 19:30:03;;;;;;;4.28;1.92;;;22.70;99.90;;;;;;10529498;28;20059;-81
2022/09/13 19:35:08;;;;;;;5.57;2.00;;;22.60;99.90;;;;;;10512906;28;20049;-80
2022/09/13 19:40:11;;;;;;;6.60;2.25;;;22.60;99.90;;;;;;10498799;28;20056;-79
2022/09/13 19:45:15;;;;;;;4.20;2.13;;;22.50;99.90;;;;;;10518880;28;20459;-80
2022/09/13 19:50:19;;;;;;;6.20;2.30;;;22.50;99.90;;;;;;10531136;28;20048;-79
2022/09/13 19:55:22;;;;;;;5.93;2.03;;;22.40;99.90;;;;;;10499974;28;20048;-79
2022/09/13 20:00:24;;;;;;;4.55;1.85;;;22.30;99.90;;;;;;10497270;28;20053;-78
2022/09/13 20:05:27;;;;;;;4.93;2.38;;;22.20;99.90;;;;;;10513481;28;20059;-80
2022/09/13 20:10:30;;;;;;;5.40;2.20;;;22.20;99.90;;;;;;10506054;28;20510;-78
2022/09/13 20:15:32;;;;;;;8.85;2.50;;;22.20;99.90;;;;;;10497568;28;20049;-77
2022/09/13 20:20:36;;;;;;;5.90;2.60;;;22.20;99.90;;;;;;10491487;28;20049;-77
2022/09/13 20:25:40;;;;;;;7.75;3.00;;;22.10;99.90;;;;;;10511375;28;20056;-76
2022/09/13 20:30:42;;;;;;;6.85;2.88;;;21.90;99.90;;;;;;10494818;28;20053;-76
2022/09/13 20:35:46;;;;;;;6.63;2.38;;;21.80;99.90;;;;;;10513722;28;20056;-76
2022/09/13 20:40:49;;;;;;;7.97;2.63;;;21.80;99.90;;;;;;10497491;28;20508;-76
2022/09/13 20:45:57;;;;;;;5.05;2.33;;;21.70;99.90;;;;;;10532291;28;20093;-77
2022/09/13 20:51:04;;;;;;;7.60;2.20;;;21.70;99.90;;;;;;10539776;28;20055;-76
2022/09/13 20:56:09;;;;;;;4.90;2.40;;;21.70;99.90;;;;;;10537479;28;20097;-76
2022/09/13 21:01:18;;;;;;;7.80;2.30;;;21.70;99.90;;;;;;10518396;28;20136;-75
2022/09/13 21:06:24;;;;;;;7.05;2.50;;;21.70;99.90;;;;;;10525162;28;20502;-78
2022/09/13 21:11:32;;;;;;;5.80;2.50;;;21.70;99.90;;;;;;10539101;28;20055;-78
2022/09/13 21:16:37;;;;;;;5.20;2.80;;;21.60;99.90;;;;;;10538155;28;20094;-78
2022/09/13 21:21:42;;;;;;;4.50;2.03;;;21.60;99.90;;;;;;10522612;28;20076;-78
2022/09/13 21:26:44;;;;;;;6.30;2.10;;;21.60;99.90;;;;;;10534058;28;20383;-78
2022/09/13 21:31:46;;;;;;;6.72;2.10;;;21.50;99.90;;;;;;10520689;28;20056;-78
2022/09/13 21:36:50;;;;;;;5.78;2.05;;;21.50;99.90;;;;;;10508821;28;20075;-78
2022/09/13 21:41:52;;;;;;;9.50;1.98;;;21.40;99.90;;;;;;10534000;28;20515;-78
2022/09/13 21:46:54;;;;;;;7.30;1.92;;;21.30;99.90;;;;;;10535357;28;20044;-78
2022/09/13 21:51:57;;;;;;;6.60;2.00;;;21.30;99.90;;;;;;10509619;28;20483;-78
2022/09/13 21:56:59;;;;;;;5.43;2.22;;;21.20;99.90;;;;;;10496405;28;20048;-78
2022/09/13 22:02:01;;;;;;;4.25;2.17;;;21.20;99.90;;;;;;10498893;28;20116;-77
2022/09/13 22:07:05;;;;;;;4.75;2.00;;;21.30;99.90;;;;;;10514007;28;20044;-78
2022/09/13 22:12:07;;;;;;;6.45;2.45;;;21.20;99.90;;;;;;10539001;28;20486;-78
2022/09/13 22:17:09;;;;;;;5.90;2.00;;;21.20;99.90;;;;;;10532498;28;20055;-78
2022/09/13 22:22:12;;;;;;;4.75;2.03;;;21.00;99.90;;;;;;10495253;28;20064;-78
2022/09/13 22:27:14;;;;;;;6.93;1.98;;;21.00;99.90;;;;;;10523071;28;20052;-78
2022/09/13 22:32:16;;;;;;;4.75;2.05;;;21.00;99.90;;;;;;10519935;28;20059;-78
2022/09/13 22:37:19;;;;;;;5.40;1.98;;;21.00;99.90;;;;;;10524159;28;20409;-78
2022/09/13 22:42:21;;;;;;;6.40;2.00;;;21.00;99.90;;;;;;10503999;28;20098;-78
2022/09/13 22:47:23;;;;;;;6.28;1.77;;;20.90;99.90;;;;;;10515476;28;20045;-77
2022/09/13 22:52:27;;;;;;;4.63;1.65;;;20.80;99.90;;;;;;10527769;28;20048;-77
2022/09/13 22:57:29;;;;;;;3.97;1.70;;;20.70;99.90;;;;;;10501526;28;20052;-77
2022/09/13 23:02:31;;;;;;;5.22;2.00;;;20.50;99.90;;;;;;10499748;28;20059;-76
2022/09/13 23:07:34;;;;;;;6.63;2.40;;;20.40;99.90;;;;;;10523106;28;20048;-76
2022/09/13 23:12:36;;;;;;;5.75;2.70;;;20.40;99.90;;;;;;10503199;28;20055;-76
2022/09/13 23:17:38;;;;;;;6.60;2.33;;;20.30;99.90;;;;;;10524738;28;20047;-77
2022/09/13 23:22:42;;;;;;;6.07;2.70;;;20.20;99.90;;;;;;10528765;28;20055;-77
2022/09/13 23:27:45;;;;;;;6.45;2.72;;;20.20;99.90;;;;;;10523267;28;20044;-76
2022/09/13 23:32:49;;;;;;;6.00;2.55;;;20.30;99.90;;;;;;10502289;28;20106;-76
2022/09/13 23:37:53;;;;;;;5.68;2.47;;;20.30;99.90;;;;;;10535828;28;20044;-77
2022/09/13 23:42:55;;;;;;;5.82;2.50;;;20.40;99.90;;;;;;10530227;28;20055;-76
2022/09/13 23:47:57;;;;;;;4.53;2.13;;;20.40;99.90;;;;;;10536256;28;20048;-76
2022/09/13 23:53:00;;;;;;;5.70;2.90;;;20.40;99.90;;;;;;10520781;28;20048;-77
2022/09/13 23:58:02;;;;;;;6.32;3.22;;;20.40;99.90;;;;;;10516669;28;20048;-77
